Bay Terrace, New York
Current Conditions -  °F | °C
As of 9:51 PM on Friday 28 Nov 2014 (Local Time) from KLGA Reporting Station
Few Clouds Few Clouds  
Wind Chill: 20°   Ceiling: Unl
Heat Index: 30°   Visibility: 10mi
Dew Point: 14°   Wind: 13mph
Humidity: 51%   Direction: 310°NW
Pressure: 30.26"   Gusts: NA
Location:  40.7825°N, 73.7809°W
Report Text: KLGA 290251Z 31011KT 10SM FEW250 M01/M10 A3026 RMK AO2 SLP247 T10111100 50005
Loading
Personal Weather Stations






























Interactive Weather Map New forecast layout! Learn more

10-Day Weather Forecast

Advertisements
Track Severe Weather on mobile